createdAt,value
2022-08-27T00:00:14.548Z,8.20
2022-08-27T00:02:45.723Z,7.47
2022-08-27T00:08:02.414Z,7.60
2022-08-27T00:10:33.654Z,8.32
2022-08-27T00:13:01.424Z,7.05
2022-08-27T00:15:34.423Z,7.13
2022-08-27T00:18:01.430Z,7.13
2022-08-27T00:20:31.354Z,7.38
2022-08-27T00:23:01.175Z,8.10
2022-08-27T00:25:32.170Z,7.07
2022-08-27T00:28:02.583Z,7.57
2022-08-27T00:30:32.228Z,7.78
2022-08-27T00:33:07.709Z,8.27
2022-08-27T00:35:38.339Z,8.43
2022-08-27T00:38:08.364Z,8.35
2022-08-27T00:40:35.621Z,8.40
2022-08-27T00:43:04.203Z,8.68
2022-08-27T00:45:39.599Z,8.63
2022-08-27T00:48:18.312Z,8.13
2022-08-27T00:50:53.043Z,9.13
2022-08-27T00:53:36.974Z,8.55
2022-08-27T00:56:31.929Z,8.32
2022-08-27T00:59:04.564Z,8.00
2022-08-27T01:01:35.822Z,8.27
2022-08-27T01:04:06.883Z,7.45
2022-08-27T01:06:42.496Z,8.35
2022-08-27T01:09:23.634Z,9.38
2022-08-27T01:12:00.023Z,8.38
2022-08-27T01:14:35.009Z,8.30
2022-08-27T01:17:06.373Z,8.20
2022-08-27T01:20:03.424Z,7.97
2022-08-27T01:23:10.207Z,7.90
2022-08-27T01:25:40.683Z,8.73
2022-08-27T01:28:21.832Z,8.40
2022-08-27T01:30:53.403Z,8.70
2022-08-27T01:33:21.905Z,8.13
2022-08-27T01:35:51.324Z,7.75
2022-08-27T01:38:30.996Z,8.43
2022-08-27T01:41:00.674Z,7.57
2022-08-27T01:43:29.251Z,7.97
2022-08-27T01:45:56.254Z,7.50
2022-08-27T01:48:23.854Z,8.55
2022-08-27T01:50:51.134Z,7.57
2022-08-27T01:53:24.279Z,8.07
2022-08-27T01:55:52.593Z,8.07
2022-08-27T01:58:21.994Z,8.55
2022-08-27T02:00:54.720Z,7.65
2022-08-27T02:03:24.600Z,7.63
2022-08-27T02:05:52.343Z,8.05
2022-08-27T02:08:19.774Z,7.60
2022-08-27T02:10:48.723Z,7.53
2022-08-27T02:13:16.419Z,8.50
2022-08-27T02:15:45.113Z,8.80
2022-08-27T02:18:13.609Z,9.32
2022-08-27T02:20:41.369Z,8.70
2022-08-27T02:23:09.159Z,7.97
2022-08-27T02:25:36.979Z,8.77
2022-08-27T02:28:05.974Z,8.80
2022-08-27T02:30:34.735Z,8.00
2022-08-27T02:33:03.350Z,8.55
2022-08-27T02:35:32.734Z,8.57
2022-08-27T02:38:01.749Z,8.02
2022-08-27T02:40:29.773Z,8.80
2022-08-27T02:42:57.028Z,8.45
2022-08-27T02:45:24.184Z,9.02
2022-08-27T02:47:51.233Z,9.07
2022-08-27T02:50:18.664Z,8.15
2022-08-27T02:52:46.395Z,8.70
2022-08-27T02:55:17.192Z,9.32
2022-08-27T02:57:45.230Z,8.77
2022-08-27T03:00:16.650Z,9.00
2022-08-27T03:02:44.382Z,9.02
2022-08-27T03:05:13.484Z,9.57
2022-08-27T03:07:41.414Z,8.70
2022-08-27T03:10:10.255Z,8.73
2022-08-27T03:12:37.774Z,8.77
2022-08-27T03:15:06.675Z,8.48
2022-08-27T03:17:52.289Z,8.90
2022-08-27T03:20:19.568Z,8.90
2022-08-27T03:22:46.928Z,9.10
2022-08-27T03:25:14.306Z,10.35
2022-08-27T03:27:41.610Z,9.85
2022-08-27T03:30:13.665Z,8.55
2022-08-27T03:32:40.809Z,8.88
2022-08-27T03:35:08.770Z,9.57
2022-08-27T03:37:36.322Z,8.68
2022-08-27T03:40:05.556Z,9.20
2022-08-27T03:42:32.613Z,9.32
2022-08-27T03:44:59.689Z,9.30
2022-08-27T03:47:26.879Z,9.57
2022-08-27T03:49:54.355Z,9.02
2022-08-27T03:52:21.453Z,8.70
2022-08-27T03:54:48.516Z,9.70
2022-08-27T03:57:15.578Z,8.98
2022-08-27T03:59:42.725Z,9.05
2022-08-27T04:02:09.914Z,9.05
2022-08-27T04:04:37.300Z,10.27
2022-08-27T04:07:05.015Z,9.35
2022-08-27T04:09:32.143Z,9.52
2022-08-27T04:11:59.179Z,9.07
2022-08-27T04:14:27.406Z,9.02
2022-08-27T04:16:56.769Z,9.00
2022-08-27T04:19:28.135Z,8.15
2022-08-27T04:22:00.805Z,9.00
2022-08-27T04:24:29.239Z,8.65
2022-08-27T04:26:56.354Z,9.07
2022-08-27T04:29:24.274Z,8.55
2022-08-27T04:31:51.838Z,9.32
2022-08-27T04:34:19.469Z,9.40
2022-08-27T04:36:46.794Z,8.98
2022-08-27T04:39:14.805Z,9.05
2022-08-27T04:41:42.057Z,9.15
2022-08-27T04:44:11.289Z,8.77
2022-08-27T04:46:40.709Z,9.38
2022-08-27T04:49:13.888Z,8.93
2022-08-27T04:51:43.388Z,9.70
2022-08-27T04:54:11.354Z,8.63
2022-08-27T04:56:39.365Z,9.25
2022-08-27T04:59:08.912Z,9.10
2022-08-27T05:01:37.574Z,8.98
2022-08-27T05:04:05.374Z,8.73
2022-08-27T05:06:33.904Z,8.30
2022-08-27T05:09:00.956Z,9.05
2022-08-27T05:11:32.604Z,8.07
2022-08-27T05:14:01.564Z,9.20
2022-08-27T05:16:28.632Z,9.10
2022-08-27T05:18:56.249Z,8.45
2022-08-27T05:21:27.536Z,8.40
2022-08-27T05:23:56.629Z,9.15
2022-08-27T05:26:23.960Z,8.15
2022-08-27T05:28:51.529Z,8.00
2022-08-27T05:31:20.412Z,8.00
2022-08-27T05:33:48.809Z,7.97
2022-08-27T05:36:22.574Z,8.25
2022-08-27T05:38:50.695Z,8.15
2022-08-27T05:41:22.290Z,8.18
2022-08-27T05:43:50.716Z,8.25
2022-08-27T05:46:21.256Z,8.32
2022-08-27T05:48:50.519Z,7.45
2022-08-27T05:51:31.350Z,7.93
2022-08-27T05:54:05.595Z,7.97
2022-08-27T05:56:36.029Z,7.80
2022-08-27T05:59:21.404Z,7.43
2022-08-27T06:01:50.351Z,7.63
2022-08-27T06:04:19.909Z,7.75
2022-08-27T06:06:49.029Z,8.18
2022-08-27T06:09:23.453Z,7.82
2022-08-27T06:11:51.024Z,7.85
2022-08-27T06:14:18.149Z,7.43
2022-08-27T06:16:45.224Z,8.43
2022-08-27T06:19:12.731Z,8.32
2022-08-27T06:21:41.578Z,8.10
2022-08-27T06:24:09.263Z,8.25
2022-08-27T06:26:36.664Z,8.45
2022-08-27T06:29:05.539Z,8.20
2022-08-27T06:31:35.798Z,8.23
2022-08-27T06:34:07.666Z,8.13
2022-08-27T06:36:41.689Z,8.27
2022-08-27T06:39:13.838Z,7.60
2022-08-27T06:41:42.488Z,7.07
2022-08-27T06:44:10.021Z,7.53
2022-08-27T06:46:37.283Z,7.43
2022-08-27T06:49:04.369Z,8.48
2022-08-27T06:51:33.929Z,8.02
2022-08-27T06:54:04.328Z,7.55
2022-08-27T06:56:32.046Z,7.53
2022-08-27T06:59:03.928Z,7.82
2022-08-27T07:01:36.778Z,7.95
2022-08-27T07:04:07.840Z,7.75
2022-08-27T07:06:35.533Z,8.27
2022-08-27T07:09:03.530Z,7.45
2022-08-27T07:11:34.224Z,6.90
2022-08-27T07:14:02.120Z,7.30
2022-08-27T07:16:30.245Z,7.57
2022-08-27T07:19:02.368Z,8.80
2022-08-27T07:21:33.194Z,7.70
2022-08-27T07:24:05.199Z,7.90
2022-08-27T07:26:35.045Z,8.15
2022-08-27T07:29:03.523Z,8.00
2022-08-27T07:31:30.854Z,8.25
2022-08-27T07:33:57.970Z,8.18
2022-08-27T07:36:26.349Z,7.72
2022-08-27T07:38:56.969Z,7.30
2022-08-27T07:41:31.899Z,7.05
2022-08-27T07:44:25.864Z,7.53
2022-08-27T07:46:56.258Z,7.03
2022-08-27T07:49:24.794Z,7.40
2022-08-27T07:51:52.615Z,7.18
2022-08-27T07:54:23.164Z,7.53
2022-08-27T07:56:55.169Z,7.63
2022-08-27T07:59:25.095Z,7.22
2022-08-27T08:01:54.889Z,7.63
2022-08-27T08:04:22.937Z,7.20
2022-08-27T08:06:51.712Z,7.40
2022-08-27T08:09:22.512Z,7.47
2022-08-27T08:11:52.715Z,7.22
2022-08-27T08:14:21.231Z,7.22
2022-08-27T08:16:48.599Z,7.22
2022-08-27T08:19:16.154Z,7.35
2022-08-27T08:21:43.794Z,7.30
2022-08-27T08:24:10.984Z,7.03
2022-08-27T08:26:38.084Z,7.05
2022-08-27T08:29:05.427Z,7.28
2022-08-27T08:31:33.229Z,7.28
2022-08-27T08:34:00.405Z,7.80
2022-08-27T08:36:27.510Z,7.07
2022-08-27T08:38:55.434Z,7.18
2022-08-27T08:41:31.121Z,7.38
2022-08-27T08:44:04.931Z,7.35
2022-08-27T08:46:58.717Z,7.70
2022-08-27T08:49:38.189Z,6.78
2022-08-27T08:52:30.559Z,6.70
2022-08-27T08:55:21.989Z,6.75
2022-08-27T08:58:09.690Z,6.47
2022-08-27T09:00:39.609Z,6.53
2022-08-27T09:03:08.276Z,7.53
2022-08-27T09:05:39.654Z,6.45
2022-08-27T09:08:34.176Z,7.10
2022-08-27T09:11:16.229Z,6.60
2022-08-27T09:14:23.276Z,7.18
2022-08-27T09:16:50.457Z,6.47
2022-08-27T09:19:24.712Z,6.70
2022-08-27T09:22:03.335Z,7.40
2022-08-27T09:24:53.013Z,7.55
2022-08-27T09:27:22.366Z,6.80
2022-08-27T09:29:55.381Z,7.13
2022-08-27T09:32:28.433Z,6.95
2022-08-27T09:35:00.889Z,6.65
2022-08-27T09:37:38.970Z,6.32
2022-08-27T09:40:32.108Z,6.60
2022-08-27T09:43:20.894Z,7.10
2022-08-27T09:45:54.612Z,6.80
2022-08-27T09:48:33.599Z,7.57
2022-08-27T09:51:06.794Z,7.35
2022-08-27T09:53:45.729Z,6.20
2022-08-27T09:56:39.470Z,7.05
2022-08-27T09:59:13.334Z,6.47
2022-08-27T10:01:54.990Z,6.78
2022-08-27T10:04:33.793Z,6.65
2022-08-27T10:07:23.226Z,6.78
2022-08-27T10:10:23.763Z,6.50
2022-08-27T10:13:18.878Z,7.68
2022-08-27T10:16:01.034Z,6.60
2022-08-27T10:18:45.064Z,6.53
2022-08-27T10:21:25.543Z,6.43
2022-08-27T10:24:13.199Z,6.10
2022-08-27T10:26:52.754Z,6.85
2022-08-27T10:29:45.214Z,6.40
2022-08-27T10:32:31.543Z,6.78
2022-08-27T10:35:12.934Z,6.43
2022-08-27T10:37:57.604Z,6.30
2022-08-27T10:40:57.934Z,6.60
2022-08-27T10:43:44.185Z,7.75
2022-08-27T10:46:27.165Z,6.65
2022-08-27T10:49:09.814Z,5.75
2022-08-27T10:52:17.549Z,5.63
2022-08-27T10:55:10.589Z,6.28
2022-08-27T10:58:00.159Z,6.43
2022-08-27T11:00:48.886Z,5.82
2022-08-27T11:03:49.228Z,5.60
2022-08-27T11:06:28.255Z,6.47
2022-08-27T11:09:07.761Z,6.65
2022-08-27T11:14:39.751Z,5.60
2022-08-27T11:17:34.964Z,6.55
2022-08-27T11:20:12.343Z,5.82
2022-08-27T11:22:55.334Z,5.55
2022-08-27T11:25:22.405Z,5.97
2022-08-27T11:27:53.803Z,5.40
2022-08-27T11:30:40.274Z,5.70
2022-08-27T11:33:36.729Z,6.25
2022-08-27T11:36:41.654Z,5.20
2022-08-27T11:39:17.574Z,6.40
2022-08-27T11:42:02.738Z,5.82
2022-08-27T11:44:30.316Z,5.38
2022-08-27T11:47:22.489Z,5.53
2022-08-27T11:49:54.671Z,6.07
2022-08-27T11:52:36.176Z,5.65
2022-08-27T11:55:21.189Z,5.65
2022-08-27T11:58:24.309Z,6.00
2022-08-27T12:00:53.832Z,5.70
2022-08-27T12:03:23.717Z,5.70
2022-08-27T12:05:53.975Z,6.13
2022-08-27T12:08:24.348Z,5.70
2022-08-27T12:10:57.314Z,6.40
2022-08-27T12:13:51.003Z,6.18
2022-08-27T12:16:42.362Z,6.50
2022-08-27T12:19:36.898Z,6.30
2022-08-27T12:22:31.683Z,6.30
2022-08-27T12:24:59.953Z,6.00
2022-08-27T12:27:36.464Z,6.50
2022-08-27T12:30:30.393Z,6.20
2022-08-27T12:32:59.638Z,5.93
2022-08-27T12:35:31.529Z,6.53
2022-08-27T12:38:16.088Z,6.47
2022-08-27T12:41:00.309Z,5.97
2022-08-27T12:43:29.814Z,6.10
2022-08-27T12:46:05.828Z,6.22
2022-08-27T12:48:41.543Z,6.55
2022-08-27T12:51:19.368Z,6.28
2022-08-27T12:53:55.028Z,5.88
2022-08-27T12:56:34.033Z,6.55
2022-08-27T12:59:16.488Z,6.20
2022-08-27T13:02:12.585Z,7.00
2022-08-27T13:04:41.308Z,7.35
2022-08-27T13:07:08.638Z,6.75
2022-08-27T13:09:38.309Z,6.45
2022-08-27T13:12:18.185Z,7.07
2022-08-27T13:14:56.841Z,6.78
2022-08-27T13:17:24.614Z,6.15
2022-08-27T13:20:00.914Z,6.75
2022-08-27T13:22:38.788Z,6.80
2022-08-27T13:25:18.743Z,6.00
2022-08-27T13:27:54.194Z,5.90
2022-08-27T13:30:35.943Z,6.13
2022-08-27T13:33:06.149Z,5.82
2022-08-27T13:35:33.989Z,6.07
2022-08-27T13:38:03.725Z,5.93
2022-08-27T13:40:52.096Z,6.70
2022-08-27T13:43:20.087Z,6.10
2022-08-27T13:45:51.727Z,6.03
2022-08-27T13:48:20.253Z,5.43
2022-08-27T13:50:55.497Z,4.88
2022-08-27T13:53:50.014Z,5.43
2022-08-27T13:56:49.655Z,6.10
2022-08-27T13:59:19.609Z,4.80
2022-08-27T14:02:04.984Z,5.13
2022-08-27T14:05:41.178Z,4.72
2022-08-27T14:08:18.228Z,5.35
2022-08-27T14:10:48.833Z,5.55
2022-08-27T14:13:24.423Z,5.43
2022-08-27T14:15:54.824Z,5.40
2022-08-27T14:18:48.039Z,4.95
2022-08-27T14:21:14.746Z,5.50
2022-08-27T14:23:41.954Z,5.20
2022-08-27T14:26:09.414Z,5.88
2022-08-27T14:28:37.073Z,5.93
2022-08-27T14:31:04.210Z,5.45
2022-08-27T14:33:31.554Z,6.03
2022-08-27T14:36:00.734Z,5.88
2022-08-27T14:38:31.830Z,5.88
2022-08-27T14:40:58.993Z,5.10
2022-08-27T14:43:26.233Z,5.75
2022-08-27T14:45:54.367Z,5.20
2022-08-27T14:48:30.597Z,5.25
2022-08-27T14:50:59.264Z,5.18
2022-08-27T14:53:26.868Z,5.05
2022-08-27T14:55:55.143Z,4.80
2022-08-27T14:58:22.630Z,5.07
2022-08-27T15:00:52.381Z,4.57
2022-08-27T15:03:20.209Z,4.90
2022-08-27T15:05:47.238Z,5.03
2022-08-27T15:08:16.090Z,4.85
2022-08-27T15:10:43.487Z,5.10
2022-08-27T15:13:38.388Z,5.22
2022-08-27T15:16:05.835Z,5.53
2022-08-27T15:18:32.872Z,5.43
2022-08-27T15:21:00.358Z,6.07
2022-08-27T15:23:27.481Z,5.95
2022-08-27T15:25:54.537Z,5.95
2022-08-27T15:28:21.637Z,6.50
2022-08-27T15:30:48.724Z,6.43
2022-08-27T15:33:16.245Z,6.53
2022-08-27T15:35:43.297Z,6.22
2022-08-27T15:38:11.004Z,7.40
2022-08-27T15:40:38.627Z,6.03
2022-08-27T15:43:07.429Z,6.40
2022-08-27T15:45:34.864Z,7.28
2022-08-27T15:48:02.014Z,7.05
2022-08-27T15:50:31.314Z,6.30
2022-08-27T15:53:02.117Z,6.32
2022-08-27T15:55:32.117Z,7.03
2022-08-27T15:58:00.109Z,7.10
2022-08-27T16:00:28.494Z,6.75
2022-08-27T16:02:56.922Z,7.78
2022-08-27T16:05:24.135Z,6.78
2022-08-27T16:07:51.258Z,7.88
2022-08-27T16:10:18.427Z,8.70
2022-08-27T16:12:46.357Z,8.75
2022-08-27T16:15:14.387Z,8.82
2022-08-27T16:17:42.752Z,9.13
2022-08-27T16:20:12.525Z,9.45
2022-08-27T16:22:40.343Z,9.73
2022-08-27T16:25:08.539Z,10.02
2022-08-27T16:27:37.644Z,9.38
2022-08-27T16:30:06.353Z,8.93
2022-08-27T16:32:33.441Z,9.43
2022-08-27T16:35:00.688Z,8.77
2022-08-27T16:37:27.703Z,9.27
2022-08-27T16:39:54.855Z,9.45
2022-08-27T16:42:22.615Z,9.85
2022-08-27T16:44:50.162Z,9.30
2022-08-27T16:47:17.888Z,9.15
2022-08-27T16:50:03.455Z,8.93
2022-08-27T16:52:30.576Z,10.48
2022-08-27T16:54:57.602Z,10.13
2022-08-27T16:57:24.746Z,9.77
2022-08-27T16:59:51.753Z,9.80
2022-08-27T17:02:32.170Z,10.20
2022-08-27T17:05:23.831Z,9.75
2022-08-27T17:07:49.282Z,9.68
2022-08-27T17:10:20.682Z,9.30
2022-08-27T17:12:48.530Z,9.13
2022-08-27T17:15:16.924Z,10.70
2022-08-27T17:17:44.517Z,8.60
2022-08-27T17:20:12.911Z,10.35
2022-08-27T17:22:39.999Z,9.15
2022-08-27T17:25:08.088Z,9.07
2022-08-27T17:27:35.505Z,9.85
2022-08-27T17:30:02.762Z,8.52
2022-08-27T17:32:32.802Z,9.05
2022-08-27T17:35:05.086Z,8.73
2022-08-27T17:37:33.575Z,9.13
2022-08-27T17:40:01.061Z,8.65
2022-08-27T17:42:29.827Z,8.02
2022-08-27T17:44:57.522Z,8.60
2022-08-27T17:47:25.302Z,7.82
2022-08-27T17:49:52.873Z,6.97
2022-08-27T17:52:21.492Z,7.07
2022-08-27T17:54:52.337Z,8.05
2022-08-27T17:57:21.123Z,7.35
2022-08-27T17:59:48.554Z,7.05
2022-08-27T18:02:19.858Z,6.65
2022-08-27T18:04:48.164Z,7.20
2022-08-27T18:07:15.537Z,9.15
2022-08-27T18:09:42.917Z,9.27
2022-08-27T18:12:13.622Z,8.82
2022-08-27T18:14:41.158Z,9.23
2022-08-27T18:17:08.252Z,9.13
2022-08-27T18:19:35.536Z,10.23
2022-08-27T18:22:04.902Z,11.02
2022-08-27T18:24:32.067Z,11.40
2022-08-27T18:26:59.122Z,12.15
2022-08-27T18:29:26.262Z,12.00
2022-08-27T18:31:53.769Z,12.65
2022-08-27T18:34:21.254Z,12.52
2022-08-27T18:36:48.786Z,11.75
2022-08-27T18:39:16.063Z,11.75
2022-08-27T18:41:44.017Z,10.40
2022-08-27T18:44:17.700Z,11.50
2022-08-27T18:46:45.334Z,11.52
2022-08-27T18:49:12.382Z,11.07
2022-08-27T18:51:42.915Z,11.18
2022-08-27T18:54:10.556Z,10.57
2022-08-27T18:56:37.707Z,12.00
2022-08-27T18:59:07.238Z,10.85
2022-08-27T19:01:34.417Z,12.10
2022-08-27T19:04:03.662Z,11.38
2022-08-27T19:06:30.817Z,11.63
2022-08-27T19:08:58.058Z,12.52
2022-08-27T19:11:25.123Z,11.82
2022-08-27T19:13:52.252Z,12.00
2022-08-27T19:16:33.361Z,10.40
2022-08-27T19:19:00.471Z,10.50
2022-08-27T19:21:27.543Z,9.50
2022-08-27T19:23:54.618Z,9.35
2022-08-27T19:26:24.864Z,10.30
2022-08-27T19:28:52.097Z,9.60
2022-08-27T19:31:19.245Z,10.32
2022-08-27T19:33:46.386Z,9.75
2022-08-27T19:36:16.553Z,10.20
2022-08-27T19:38:45.292Z,9.80
2022-08-27T19:41:13.119Z,9.35
2022-08-27T19:43:44.010Z,8.95
2022-08-27T19:46:17.375Z,9.10
2022-08-27T19:48:44.518Z,9.30
2022-08-27T19:51:12.017Z,9.00
2022-08-27T19:53:39.516Z,8.68
2022-08-27T19:56:09.257Z,8.90
2022-08-27T19:58:36.997Z,7.85
2022-08-27T20:01:04.107Z,7.20
2022-08-27T20:03:31.325Z,7.90
2022-08-27T20:05:58.409Z,7.00
2022-08-27T20:08:25.591Z,7.28
2022-08-27T20:10:52.758Z,7.15
2022-08-27T20:13:19.912Z,6.35
2022-08-27T20:15:48.055Z,6.35
2022-08-27T20:18:15.392Z,5.82
2022-08-27T20:20:42.982Z,6.75
2022-08-27T20:23:10.024Z,6.15
2022-08-27T20:25:37.789Z,7.13
2022-08-27T20:28:28.345Z,7.30
2022-08-27T20:30:54.060Z,7.28
2022-08-27T20:33:21.136Z,8.07
2022-08-27T20:35:48.222Z,8.13
2022-08-27T20:38:15.358Z,7.85
2022-08-27T20:40:42.932Z,8.20
2022-08-27T20:43:10.117Z,7.15
2022-08-27T20:45:39.419Z,8.07
2022-08-27T20:48:06.593Z,7.43
2022-08-27T20:50:33.707Z,8.40
2022-08-27T20:53:01.261Z,7.53
2022-08-27T20:55:29.111Z,7.75
2022-08-27T20:58:14.708Z,7.90
2022-08-27T21:00:43.486Z,7.68
2022-08-27T21:03:14.051Z,7.82
2022-08-27T21:05:47.261Z,8.13
2022-08-27T21:08:16.928Z,8.10
2022-08-27T21:10:47.702Z,8.27
2022-08-27T21:13:16.107Z,7.85
2022-08-27T21:15:43.652Z,8.23
2022-08-27T21:18:11.180Z,9.52
2022-08-27T21:20:38.581Z,9.98
2022-08-27T21:23:07.066Z,9.65
2022-08-27T21:25:36.896Z,9.75
2022-08-27T21:28:07.910Z,9.80
2022-08-27T21:30:37.541Z,10.43
2022-08-27T21:33:14.341Z,10.88
2022-08-27T21:35:45.432Z,10.90
2022-08-27T21:38:16.541Z,10.07
2022-08-27T21:40:55.301Z,9.27
2022-08-27T21:43:25.696Z,10.57
2022-08-27T21:45:58.986Z,9.77
2022-08-27T21:48:27.851Z,10.15
2022-08-27T21:50:57.050Z,9.35
2022-08-27T21:53:26.902Z,9.93
2022-08-27T21:55:57.381Z,8.63
2022-08-27T21:58:27.986Z,9.52
2022-08-27T22:00:56.417Z,9.52
2022-08-27T22:03:26.301Z,9.50
2022-08-27T22:05:55.856Z,9.95
2022-08-27T22:08:24.441Z,9.32
2022-08-27T22:10:59.014Z,9.40
2022-08-27T22:13:28.292Z,9.57
2022-08-27T22:15:57.282Z,9.07
2022-08-27T22:18:28.336Z,8.60
2022-08-27T22:21:07.625Z,8.68
2022-08-27T22:23:37.778Z,8.88
2022-08-27T22:26:07.546Z,7.43
2022-08-27T22:28:37.416Z,7.68
2022-08-27T22:31:18.084Z,7.93
2022-08-27T22:33:48.061Z,7.93
2022-08-27T22:36:16.606Z,7.53
2022-08-27T22:38:45.271Z,7.45
2022-08-27T22:41:18.315Z,7.72
2022-08-27T22:43:48.583Z,7.63
2022-08-27T22:46:17.104Z,7.68
2022-08-27T22:48:46.026Z,7.25
2022-08-27T22:51:15.672Z,7.88
2022-08-27T22:53:52.936Z,7.28
2022-08-27T22:56:24.287Z,7.80
2022-08-27T22:58:52.512Z,7.78
2022-08-27T23:04:08.938Z,8.20
2022-08-27T23:06:39.171Z,8.43
2022-08-27T23:09:07.597Z,8.13
2022-08-27T23:11:37.831Z,8.57
2022-08-27T23:14:05.089Z,8.57
2022-08-27T23:16:43.191Z,9.27
2022-08-27T23:19:25.855Z,8.82
2022-08-27T23:21:56.106Z,8.55
2022-08-27T23:24:24.728Z,8.30
2022-08-27T23:27:14.271Z,8.88
2022-08-27T23:29:43.626Z,7.60
2022-08-27T23:32:19.136Z,7.97
2022-08-27T23:34:49.726Z,8.50
2022-08-27T23:37:18.266Z,8.27
2022-08-27T23:39:53.215Z,9.82
2022-08-27T23:42:23.736Z,8.10
2022-08-27T23:44:53.117Z,8.13
2022-08-27T23:47:23.415Z,8.65
2022-08-27T23:50:02.108Z,8.18
2022-08-27T23:52:32.901Z,9.30
2022-08-27T23:55:03.164Z,9.52
2022-08-27T23:57:32.631Z,10.02
